createdAt,value
2019-06-20T08:07:29.295Z,65.40
2019-06-20T08:09:58.523Z,65.50
2019-06-20T08:12:27.802Z,65.10
2019-06-20T08:14:58.305Z,64.80
2019-06-20T08:17:35.292Z,64.50
2019-06-20T08:19:59.098Z,64.80
2019-06-20T08:22:28.356Z,64.10
2019-06-20T08:24:58.953Z,64.40
2019-06-20T08:27:46.625Z,64.10
2019-06-20T08:30:15.920Z,63.30
2019-06-20T08:32:45.124Z,64.10
2019-06-20T08:35:15.560Z,64.30
2019-06-20T08:37:44.872Z,64.20
2019-06-20T08:40:14.403Z,64.50
2019-06-20T08:42:43.634Z,64.20
2019-06-20T08:45:13.116Z,63.40
2019-06-20T08:47:42.363Z,63.90
2019-06-20T08:50:11.795Z,64.50
2019-06-20T08:52:40.996Z,64.70
2019-06-20T08:55:10.558Z,64.80
2019-06-20T08:57:39.760Z,65.00
2019-06-20T09:02:38.506Z,65.50
2019-06-20T09:05:08.270Z,65.90
2019-06-20T09:07:40.926Z,65.80
2019-06-20T09:10:09.770Z,65.00
2019-06-20T09:12:38.979Z,64.60
2019-06-20T09:15:09.333Z,63.60
2019-06-20T09:17:38.758Z,63.90
2019-06-20T09:20:09.185Z,63.50
2019-06-20T09:22:39.366Z,63.80
2019-06-20T09:25:09.319Z,63.10
2019-06-20T09:27:38.615Z,61.00
2019-06-20T09:30:09.354Z,61.40
2019-06-20T09:32:38.757Z,62.10
2019-06-20T09:35:09.094Z,61.00
2019-06-20T09:37:38.953Z,61.60
2019-06-20T09:40:10.215Z,61.20
2019-06-20T09:42:39.526Z,62.40
2019-06-20T09:45:11.888Z,62.90
2019-06-20T09:47:42.304Z,62.10
2019-06-20T09:50:12.958Z,60.60
2019-06-20T09:52:42.305Z,61.00
2019-06-20T09:55:12.103Z,59.40
2019-06-20T09:57:41.347Z,59.50
2019-06-20T10:00:13.876Z,59.80
2019-06-20T10:02:43.096Z,59.00
2019-06-20T10:05:13.021Z,58.80
2019-06-20T10:07:42.240Z,59.20
2019-06-20T10:10:12.584Z,58.00
2019-06-20T10:15:28.510Z,57.40
2019-06-20T10:17:57.903Z,58.00
2019-06-20T10:20:28.820Z,59.00
2019-06-20T10:27:58.089Z,58.40
2019-06-20T10:30:27.991Z,58.90
2019-06-20T10:32:57.756Z,60.20
2019-06-20T10:55:22.487Z,59.10
2019-06-20T11:05:21.422Z,57.70
2019-06-20T11:07:50.987Z,57.80
2019-06-20T11:12:54.826Z,59.00
2019-06-20T11:50:15.354Z,60.10
2019-06-20T11:52:45.856Z,59.50
2019-06-20T13:57:22.402Z,56.90
2019-06-20T13:59:52.922Z,57.90
2019-06-20T14:02:22.544Z,58.30
2019-06-20T14:04:52.219Z,58.50
2019-06-20T14:07:21.609Z,58.40
2019-06-20T14:09:51.131Z,57.50
2019-06-20T14:12:20.523Z,58.30
2019-06-20T16:38:58.848Z,69.10
2019-06-20T16:41:28.043Z,68.10
2019-06-20T16:43:58.615Z,66.20
2019-06-20T16:46:27.850Z,65.30
2019-06-20T17:28:38.924Z,63.40
2019-06-20T17:31:08.147Z,63.40
2019-06-20T17:38:37.932Z,62.80
2019-06-20T17:41:08.217Z,62.20
2019-06-20T17:43:37.423Z,62.10
2019-06-20T17:46:06.648Z,61.90
2019-06-20T17:48:35.851Z,62.30
2019-06-20T17:51:05.083Z,62.20
2019-06-20T17:53:34.311Z,61.40
2019-06-20T17:56:04.535Z,60.60
2019-06-20T17:58:33.758Z,60.00
2019-06-20T18:01:03.273Z,59.40
2019-06-20T18:03:32.498Z,59.20
2019-06-20T18:06:01.736Z,59.80
